sensor_id;sensor_type;location;lat;lon;timestamp;temperature;humidity
33988;DHT22;37428;53.580;-1.666;2023-05-01T00:02:03;11.50;94.50
33988;DHT22;37428;53.580;-1.666;2023-05-01T00:05:05;11.40;94.30
33988;DHT22;37428;53.580;-1.666;2023-05-01T00:08:09;11.40;94.20
33988;DHT22;37428;53.580;-1.666;2023-05-01T00:11:11;11.30;94.10
33988;DHT22;37428;53.580;-1.666;2023-05-01T00:14:13;11.30;94.30
33988;DHT22;37428;53.580;-1.666;2023-05-01T00:17:16;11.30;94.30
33988;DHT22;37428;53.580;-1.666;2023-05-01T00:20:18;11.20;94.40
33988;DHT22;37428;53.580;-1.666;2023-05-01T00:23:22;11.20;94.30
33988;DHT22;37428;53.580;-1.666;2023-05-01T00:26:24;11.20;94.20
33988;DHT22;37428;53.580;-1.666;2023-05-01T00:29:30;11.20;94.30
33988;DHT22;37428;53.580;-1.666;2023-05-01T00:32:32;11.20;94.10
33988;DHT22;37428;53.580;-1.666;2023-05-01T00:35:34;11.20;94.30
33988;DHT22;37428;53.580;-1.666;2023-05-01T00:38:37;11.20;94.20
33988;DHT22;37428;53.580;-1.666;2023-05-01T00:41:40;11.10;94.40
33988;DHT22;37428;53.580;-1.666;2023-05-01T00:44:42;11.10;94.40
33988;DHT22;37428;53.580;-1.666;2023-05-01T00:47:44;11.00;94.50
33988;DHT22;37428;53.580;-1.666;2023-05-01T00:50:48;11.00;94.60
33988;DHT22;37428;53.580;-1.666;2023-05-01T00:53:53;10.90;95.00
33988;DHT22;37428;53.580;-1.666;2023-05-01T00:56:56;10.90;95.00
33988;DHT22;37428;53.580;-1.666;2023-05-01T00:59:58;10.80;94.90
33988;DHT22;37428;53.580;-1.666;2023-05-01T01:03:00;10.80;94.90
33988;DHT22;37428;53.580;-1.666;2023-05-01T01:06:08;10.90;94.90
33988;DHT22;37428;53.580;-1.666;2023-05-01T01:09:19;10.80;95.00
33988;DHT22;37428;53.580;-1.666;2023-05-01T01:12:27;10.80;95.00
33988;DHT22;37428;53.580;-1.666;2023-05-01T01:15:34;10.80;95.00
33988;DHT22;37428;53.580;-1.666;2023-05-01T01:18:42;10.70;94.80
33988;DHT22;37428;53.580;-1.666;2023-05-01T01:21:48;10.70;94.80
33988;DHT22;37428;53.580;-1.666;2023-05-01T01:25:28;10.70;95.30
33988;DHT22;37428;53.580;-1.666;2023-05-01T01:28:56;10.70;95.50
33988;DHT22;37428;53.580;-1.666;2023-05-01T01:32:15;10.70;95.60
33988;DHT22;37428;53.580;-1.666;2023-05-01T01:35:25;10.80;96.10
33988;DHT22;37428;53.580;-1.666;2023-05-01T01:38:32;10.80;95.80
33988;DHT22;37428;53.580;-1.666;2023-05-01T01:41:36;10.80;96.00
33988;DHT22;37428;53.580;-1.666;2023-05-01T01:44:42;10.80;95.70
33988;DHT22;37428;53.580;-1.666;2023-05-01T01:47:46;10.80;95.80
33988;DHT22;37428;53.580;-1.666;2023-05-01T01:50:52;10.80;95.60
33988;DHT22;37428;53.580;-1.666;2023-05-01T01:53:56;10.80;95.20
33988;DHT22;37428;53.580;-1.666;2023-05-01T01:57:00;10.70;95.10
33988;DHT22;37428;53.580;-1.666;2023-05-01T02:00:04;10.70;95.20
33988;DHT22;37428;53.580;-1.666;2023-05-01T02:03:09;10.70;95.10
33988;DHT22;37428;53.580;-1.666;2023-05-01T02:06:15;10.70;95.10
33988;DHT22;37428;53.580;-1.666;2023-05-01T02:09:18;10.70;95.20
33988;DHT22;37428;53.580;-1.666;2023-05-01T02:12:22;10.60;95.40
33988;DHT22;37428;53.580;-1.666;2023-05-01T02:15:26;10.60;95.50
33988;DHT22;37428;53.580;-1.666;2023-05-01T02:18:30;10.60;95.60
33988;DHT22;37428;53.580;-1.666;2023-05-01T02:21:34;10.60;95.80
33988;DHT22;37428;53.580;-1.666;2023-05-01T02:24:38;10.60;96.10
33988;DHT22;37428;53.580;-1.666;2023-05-01T02:27:45;10.60;95.80
33988;DHT22;37428;53.580;-1.666;2023-05-01T02:30:48;10.60;96.20
33988;DHT22;37428;53.580;-1.666;2023-05-01T02:33:50;10.60;96.30
33988;DHT22;37428;53.580;-1.666;2023-05-01T02:36:54;10.60;96.40
33988;DHT22;37428;53.580;-1.666;2023-05-01T02:39:56;10.60;96.60
33988;DHT22;37428;53.580;-1.666;2023-05-01T02:43:00;10.50;97.00
33988;DHT22;37428;53.580;-1.666;2023-05-01T02:46:06;10.50;97.00
33988;DHT22;37428;53.580;-1.666;2023-05-01T02:49:11;10.60;97.20
33988;DHT22;37428;53.580;-1.666;2023-05-01T02:52:15;10.60;97.20
33988;DHT22;37428;53.580;-1.666;2023-05-01T02:55:17;10.50;97.20
33988;DHT22;37428;53.580;-1.666;2023-05-01T02:58:19;10.50;97.40
33988;DHT22;37428;53.580;-1.666;2023-05-01T03:01:22;10.50;97.20
33988;DHT22;37428;53.580;-1.666;2023-05-01T03:04:24;10.50;97.00
33988;DHT22;37428;53.580;-1.666;2023-05-01T03:07:28;10.60;97.00
33988;DHT22;37428;53.580;-1.666;2023-05-01T03:10:34;10.50;96.80
33988;DHT22;37428;53.580;-1.666;2023-05-01T03:13:36;10.60;97.00
33988;DHT22;37428;53.580;-1.666;2023-05-01T03:16:38;10.50;96.60
33988;DHT22;37428;53.580;-1.666;2023-05-01T03:19:41;10.50;96.40
33988;DHT22;37428;53.580;-1.666;2023-05-01T03:22:44;10.50;96.60
33988;DHT22;37428;53.580;-1.666;2023-05-01T03:25:46;10.50;96.40
33988;DHT22;37428;53.580;-1.666;2023-05-01T03:28:49;10.40;96.40
33988;DHT22;37428;53.580;-1.666;2023-05-01T03:31:51;10.40;96.20
33988;DHT22;37428;53.580;-1.666;2023-05-01T03:34:53;10.40;96.50
33988;DHT22;37428;53.580;-1.666;2023-05-01T03:37:56;10.40;96.70
33988;DHT22;37428;53.580;-1.666;2023-05-01T03:40:58;10.40;97.00
33988;DHT22;37428;53.580;-1.666;2023-05-01T03:44:00;10.30;97.20
33988;DHT22;37428;53.580;-1.666;2023-05-01T03:47:02;10.40;97.30
33988;DHT22;37428;53.580;-1.666;2023-05-01T03:50:06;10.40;97.30
33988;DHT22;37428;53.580;-1.666;2023-05-01T03:53:09;10.30;97.40
33988;DHT22;37428;53.580;-1.666;2023-05-01T03:56:12;10.30;97.80
33988;DHT22;37428;53.580;-1.666;2023-05-01T03:59:14;10.30;97.70
33988;DHT22;37428;53.580;-1.666;2023-05-01T04:02:16;10.30;97.40
33988;DHT22;37428;53.580;-1.666;2023-05-01T04:05:18;10.30;97.60
33988;DHT22;37428;53.580;-1.666;2023-05-01T04:08:23;10.40;97.20
33988;DHT22;37428;53.580;-1.666;2023-05-01T04:11:25;10.30;97.00
33988;DHT22;37428;53.580;-1.666;2023-05-01T04:14:27;10.30;97.40
33988;DHT22;37428;53.580;-1.666;2023-05-01T04:17:29;10.40;97.70
33988;DHT22;37428;53.580;-1.666;2023-05-01T04:20:32;10.40;97.10
33988;DHT22;37428;53.580;-1.666;2023-05-01T04:23:35;10.40;96.90
33988;DHT22;37428;53.580;-1.666;2023-05-01T04:26:38;10.40;96.70
33988;DHT22;37428;53.580;-1.666;2023-05-01T04:29:40;10.40;96.80
33988;DHT22;37428;53.580;-1.666;2023-05-01T04:32:42;10.40;96.90
33988;DHT22;37428;53.580;-1.666;2023-05-01T04:35:44;10.40;96.40
33988;DHT22;37428;53.580;-1.666;2023-05-01T04:38:48;10.40;96.50
33988;DHT22;37428;53.580;-1.666;2023-05-01T04:41:50;10.40;96.90
33988;DHT22;37428;53.580;-1.666;2023-05-01T04:44:52;10.40;97.00
33988;DHT22;37428;53.580;-1.666;2023-05-01T04:47:54;10.40;96.90
33988;DHT22;37428;53.580;-1.666;2023-05-01T04:50:56;10.30;96.80
33988;DHT22;37428;53.580;-1.666;2023-05-01T04:53:59;10.30;97.00
33988;DHT22;37428;53.580;-1.666;2023-05-01T04:57:01;10.30;97.30
33988;DHT22;37428;53.580;-1.666;2023-05-01T05:00:05;10.20;97.70
33988;DHT22;37428;53.580;-1.666;2023-05-01T05:03:07;10.30;97.90
33988;DHT22;37428;53.580;-1.666;2023-05-01T05:06:09;10.30;97.50
33988;DHT22;37428;53.580;-1.666;2023-05-01T05:09:13;10.30;96.90
33988;DHT22;37428;53.580;-1.666;2023-05-01T05:12:15;10.30;96.80
33988;DHT22;37428;53.580;-1.666;2023-05-01T05:15:17;10.30;97.00
33988;DHT22;37428;53.580;-1.666;2023-05-01T05:18:19;10.30;97.00
33988;DHT22;37428;53.580;-1.666;2023-05-01T05:21:22;10.30;96.80
33988;DHT22;37428;53.580;-1.666;2023-05-01T05:24:25;10.30;96.70
33988;DHT22;37428;53.580;-1.666;2023-05-01T05:27:27;10.30;97.00
33988;DHT22;37428;53.580;-1.666;2023-05-01T05:30:29;10.30;96.60
33988;DHT22;37428;53.580;-1.666;2023-05-01T05:33:31;10.40;96.50
33988;DHT22;37428;53.580;-1.666;2023-05-01T05:36:33;10.40;96.40
33988;DHT22;37428;53.580;-1.666;2023-05-01T05:39:37;10.40;96.40
33988;DHT22;37428;53.580;-1.666;2023-05-01T05:42:39;10.40;96.30
33988;DHT22;37428;53.580;-1.666;2023-05-01T05:45:41;10.40;96.20
33988;DHT22;37428;53.580;-1.666;2023-05-01T05:48:43;10.40;96.20
33988;DHT22;37428;53.580;-1.666;2023-05-01T05:51:45;10.40;96.10
33988;DHT22;37428;53.580;-1.666;2023-05-01T05:54:49;10.40;95.90
33988;DHT22;37428;53.580;-1.666;2023-05-01T05:57:51;10.40;95.90
33988;DHT22;37428;53.580;-1.666;2023-05-01T06:00:53;10.30;96.30
33988;DHT22;37428;53.580;-1.666;2023-05-01T06:03:56;10.30;96.00
33988;DHT22;37428;53.580;-1.666;2023-05-01T06:06:58;10.30;96.00
33988;DHT22;37428;53.580;-1.666;2023-05-01T06:10:01;10.40;96.10
33988;DHT22;37428;53.580;-1.666;2023-05-01T06:13:05;10.40;96.10
33988;DHT22;37428;53.580;-1.666;2023-05-01T06:16:08;10.40;95.60
33988;DHT22;37428;53.580;-1.666;2023-05-01T06:19:10;10.40;95.80
33988;DHT22;37428;53.580;-1.666;2023-05-01T06:22:12;10.40;96.00
33988;DHT22;37428;53.580;-1.666;2023-05-01T06:25:16;10.40;95.50
33988;DHT22;37428;53.580;-1.666;2023-05-01T06:28:18;10.40;95.50
33988;DHT22;37428;53.580;-1.666;2023-05-01T06:31:21;10.40;96.30
33988;DHT22;37428;53.580;-1.666;2023-05-01T06:34:23;10.40;95.90
33988;DHT22;37428;53.580;-1.666;2023-05-01T06:37:25;10.40;95.60
33988;DHT22;37428;53.580;-1.666;2023-05-01T06:40:28;10.50;96.30
33988;DHT22;37428;53.580;-1.666;2023-05-01T06:43:31;10.60;96.10
33988;DHT22;37428;53.580;-1.666;2023-05-01T06:46:33;10.70;95.70
33988;DHT22;37428;53.580;-1.666;2023-05-01T06:49:35;10.70;95.20
33988;DHT22;37428;53.580;-1.666;2023-05-01T06:52:37;10.80;95.30
33988;DHT22;37428;53.580;-1.666;2023-05-01T06:55:40;10.80;95.10
33988;DHT22;37428;53.580;-1.666;2023-05-01T06:58:43;10.90;94.80
33988;DHT22;37428;53.580;-1.666;2023-05-01T07:01:45;11.00;94.30
33988;DHT22;37428;53.580;-1.666;2023-05-01T07:04:47;11.00;93.90
33988;DHT22;37428;53.580;-1.666;2023-05-01T07:07:49;11.00;93.50
33988;DHT22;37428;53.580;-1.666;2023-05-01T07:10:53;11.10;93.90
33988;DHT22;37428;53.580;-1.666;2023-05-01T07:13:55;11.20;94.10
33988;DHT22;37428;53.580;-1.666;2023-05-01T07:16:57;11.20;93.20
33988;DHT22;37428;53.580;-1.666;2023-05-01T07:19:59;11.30;93.10
33988;DHT22;37428;53.580;-1.666;2023-05-01T07:23:02;11.30;93.40
33988;DHT22;37428;53.580;-1.666;2023-05-01T07:26:06;11.30;92.50
33988;DHT22;37428;53.580;-1.666;2023-05-01T07:29:08;11.40;92.30
33988;DHT22;37428;53.580;-1.666;2023-05-01T07:32:11;11.50;91.60
33988;DHT22;37428;53.580;-1.666;2023-05-01T07:35:14;11.60;91.50
33988;DHT22;37428;53.580;-1.666;2023-05-01T07:38:16;11.60;90.10
33988;DHT22;37428;53.580;-1.666;2023-05-01T07:41:19;11.70;89.90
33988;DHT22;37428;53.580;-1.666;2023-05-01T07:44:22;11.80;89.50
33988;DHT22;37428;53.580;-1.666;2023-05-01T07:47:24;11.90;89.40
33988;DHT22;37428;53.580;-1.666;2023-05-01T07:50:26;11.90;89.00
33988;DHT22;37428;53.580;-1.666;2023-05-01T07:53:28;12.00;89.00
33988;DHT22;37428;53.580;-1.666;2023-05-01T07:56:38;11.90;88.70
33988;DHT22;37428;53.580;-1.666;2023-05-01T07:59:40;12.00;88.90
33988;DHT22;37428;53.580;-1.666;2023-05-01T08:02:42;12.00;88.40
33988;DHT22;37428;53.580;-1.666;2023-05-01T08:05:44;12.00;88.20
33988;DHT22;37428;53.580;-1.666;2023-05-01T08:08:46;12.00;87.20
33988;DHT22;37428;53.580;-1.666;2023-05-01T08:11:50;12.00;86.90
33988;DHT22;37428;53.580;-1.666;2023-05-01T08:14:52;12.10;86.50
33988;DHT22;37428;53.580;-1.666;2023-05-01T08:17:54;12.10;86.30
33988;DHT22;37428;53.580;-1.666;2023-05-01T08:20:56;12.10;86.40
33988;DHT22;37428;53.580;-1.666;2023-05-01T08:23:58;12.20;86.10
33988;DHT22;37428;53.580;-1.666;2023-05-01T08:27:02;12.30;86.30
33988;DHT22;37428;53.580;-1.666;2023-05-01T08:30:05;12.20;85.40
33988;DHT22;37428;53.580;-1.666;2023-05-01T08:33:07;12.60;85.20
33988;DHT22;37428;53.580;-1.666;2023-05-01T08:36:10;13.10;83.70
33988;DHT22;37428;53.580;-1.666;2023-05-01T08:39:12;13.90;80.50
33988;DHT22;37428;53.580;-1.666;2023-05-01T08:42:16;14.20;79.40
33988;DHT22;37428;53.580;-1.666;2023-05-01T08:45:18;14.70;77.80
33988;DHT22;37428;53.580;-1.666;2023-05-01T08:48:21;15.50;75.50
33988;DHT22;37428;53.580;-1.666;2023-05-01T08:51:25;15.30;73.70
33988;DHT22;37428;53.580;-1.666;2023-05-01T08:54:28;14.90;74.10
33988;DHT22;37428;53.580;-1.666;2023-05-01T08:57:34;14.40;75.30
33988;DHT22;37428;53.580;-1.666;2023-05-01T09:00:38;14.10;75.20
33988;DHT22;37428;53.580;-1.666;2023-05-01T09:03:43;13.90;74.70
33988;DHT22;37428;53.580;-1.666;2023-05-01T09:06:46;14.30;74.30
33988;DHT22;37428;53.580;-1.666;2023-05-01T09:09:48;14.40;75.20
33988;DHT22;37428;53.580;-1.666;2023-05-01T09:12:55;14.60;75.10
33988;DHT22;37428;53.580;-1.666;2023-05-01T09:15:58;14.80;73.10
33988;DHT22;37428;53.580;-1.666;2023-05-01T09:19:01;15.30;72.60
33988;DHT22;37428;53.580;-1.666;2023-05-01T09:22:03;15.60;70.80
33988;DHT22;37428;53.580;-1.666;2023-05-01T09:25:06;16.20;70.10
33988;DHT22;37428;53.580;-1.666;2023-05-01T09:28:11;16.50;70.60
33988;DHT22;37428;53.580;-1.666;2023-05-01T09:31:23;17.00;67.20
33988;DHT22;37428;53.580;-1.666;2023-05-01T09:34:27;17.40;63.80
33988;DHT22;37428;53.580;-1.666;2023-05-01T09:37:31;17.60;63.90
33988;DHT22;37428;53.580;-1.666;2023-05-01T09:40:34;18.00;62.60
33988;DHT22;37428;53.580;-1.666;2023-05-01T09:43:38;17.70;60.60
33988;DHT22;37428;53.580;-1.666;2023-05-01T09:46:40;17.10;59.90
33988;DHT22;37428;53.580;-1.666;2023-05-01T09:49:44;17.10;60.40
33988;DHT22;37428;53.580;-1.666;2023-05-01T09:52:49;17.40;60.20
33988;DHT22;37428;53.580;-1.666;2023-05-01T09:55:59;17.20;60.40
33988;DHT22;37428;53.580;-1.666;2023-05-01T09:59:15;16.60;59.50
33988;DHT22;37428;53.580;-1.666;2023-05-01T10:02:27;16.10;60.10
33988;DHT22;37428;53.580;-1.666;2023-05-01T10:05:41;16.00;62.20
33988;DHT22;37428;53.580;-1.666;2023-05-01T10:08:45;15.80;62.30
33988;DHT22;37428;53.580;-1.666;2023-05-01T10:11:48;15.50;63.30
33988;DHT22;37428;53.580;-1.666;2023-05-01T10:14:54;15.50;63.70
33988;DHT22;37428;53.580;-1.666;2023-05-01T10:17:56;15.40;62.30
33988;DHT22;37428;53.580;-1.666;2023-05-01T10:20:58;15.40;62.70
33988;DHT22;37428;53.580;-1.666;2023-05-01T10:24:01;15.30;63.50
33988;DHT22;37428;53.580;-1.666;2023-05-01T10:27:05;15.40;63.60
33988;DHT22;37428;53.580;-1.666;2023-05-01T10:30:10;15.60;64.70
33988;DHT22;37428;53.580;-1.666;2023-05-01T10:33:12;15.80;64.20
33988;DHT22;37428;53.580;-1.666;2023-05-01T10:36:18;15.80;62.90
33988;DHT22;37428;53.580;-1.666;2023-05-01T10:39:30;15.60;61.90
33988;DHT22;37428;53.580;-1.666;2023-05-01T10:42:32;15.40;63.10
33988;DHT22;37428;53.580;-1.666;2023-05-01T10:46:25;15.20;64.60
33988;DHT22;37428;53.580;-1.666;2023-05-01T10:53:18;15.30;63.50
33988;DHT22;37428;53.580;-1.666;2023-05-01T10:56:39;15.50;63.10
33988;DHT22;37428;53.580;-1.666;2023-05-01T11:00:12;15.70;63.90
33988;DHT22;37428;53.580;-1.666;2023-05-01T11:03:34;15.80;63.10
33988;DHT22;37428;53.580;-1.666;2023-05-01T11:06:36;15.90;63.40
33988;DHT22;37428;53.580;-1.666;2023-05-01T11:09:40;15.90;61.80
33988;DHT22;37428;53.580;-1.666;2023-05-01T11:12:49;15.80;62.30
33988;DHT22;37428;53.580;-1.666;2023-05-01T11:15:52;15.70;63.00
33988;DHT22;37428;53.580;-1.666;2023-05-01T11:18:55;15.70;62.70
33988;DHT22;37428;53.580;-1.666;2023-05-01T11:21:57;15.70;63.10
33988;DHT22;37428;53.580;-1.666;2023-05-01T11:25:00;15.70;63.60
33988;DHT22;37428;53.580;-1.666;2023-05-01T11:28:04;15.80;63.70
33988;DHT22;37428;53.580;-1.666;2023-05-01T11:31:06;15.90;63.10
33988;DHT22;37428;53.580;-1.666;2023-05-01T11:34:09;16.80;63.90
33988;DHT22;37428;53.580;-1.666;2023-05-01T11:37:12;17.70;61.40
33988;DHT22;37428;53.580;-1.666;2023-05-01T11:40:19;18.50;58.90
33988;DHT22;37428;53.580;-1.666;2023-05-01T11:43:21;19.10;58.90
33988;DHT22;37428;53.580;-1.666;2023-05-01T11:46:24;19.60;57.10
33988;DHT22;37428;53.580;-1.666;2023-05-01T11:49:29;19.30;53.20
33988;DHT22;37428;53.580;-1.666;2023-05-01T11:52:41;19.00;53.20
33988;DHT22;37428;53.580;-1.666;2023-05-01T11:55:44;18.50;54.20
33988;DHT22;37428;53.580;-1.666;2023-05-01T11:58:46;17.90;56.10
33988;DHT22;37428;53.580;-1.666;2023-05-01T12:01:48;17.60;58.10
33988;DHT22;37428;53.580;-1.666;2023-05-01T12:04:52;17.30;58.30
33988;DHT22;37428;53.580;-1.666;2023-05-01T12:08:09;17.00;57.50
33988;DHT22;37428;53.580;-1.666;2023-05-01T12:11:12;16.70;58.90
33988;DHT22;37428;53.580;-1.666;2023-05-01T12:14:14;16.50;60.20
33988;DHT22;37428;53.580;-1.666;2023-05-01T12:17:17;16.60;60.30
33988;DHT22;37428;53.580;-1.666;2023-05-01T12:20:37;16.60;59.90
33988;DHT22;37428;53.580;-1.666;2023-05-01T12:23:40;16.50;60.50
33988;DHT22;37428;53.580;-1.666;2023-05-01T12:26:43;16.30;60.70
33988;DHT22;37428;53.580;-1.666;2023-05-01T12:29:45;16.20;60.90
33988;DHT22;37428;53.580;-1.666;2023-05-01T12:32:48;16.10;62.10
33988;DHT22;37428;53.580;-1.666;2023-05-01T12:35:51;16.10;62.40
33988;DHT22;37428;53.580;-1.666;2023-05-01T12:38:55;16.00;62.70
33988;DHT22;37428;53.580;-1.666;2023-05-01T12:41:58;15.80;62.40
33988;DHT22;37428;53.580;-1.666;2023-05-01T12:45:00;15.80;62.20
33988;DHT22;37428;53.580;-1.666;2023-05-01T12:48:09;15.80;62.70
33988;DHT22;37428;53.580;-1.666;2023-05-01T12:51:19;15.80;62.60
33988;DHT22;37428;53.580;-1.666;2023-05-01T12:54:22;15.80;62.80
33988;DHT22;37428;53.580;-1.666;2023-05-01T12:57:24;15.70;62.90
33988;DHT22;37428;53.580;-1.666;2023-05-01T13:00:26;15.90;64.00
33988;DHT22;37428;53.580;-1.666;2023-05-01T13:03:29;16.00;65.00
33988;DHT22;37428;53.580;-1.666;2023-05-01T13:06:33;16.20;64.40
33988;DHT22;37428;53.580;-1.666;2023-05-01T13:09:35;16.10;62.90
33988;DHT22;37428;53.580;-1.666;2023-05-01T13:12:43;16.00;63.90
33988;DHT22;37428;53.580;-1.666;2023-05-01T13:15:45;16.00;65.00
33988;DHT22;37428;53.580;-1.666;2023-05-01T13:18:49;16.00;65.40
33988;DHT22;37428;53.580;-1.666;2023-05-01T13:21:53;16.20;64.40
33988;DHT22;37428;53.580;-1.666;2023-05-01T13:24:56;16.20;64.10
33988;DHT22;37428;53.580;-1.666;2023-05-01T13:27:58;16.10;63.50
33988;DHT22;37428;53.580;-1.666;2023-05-01T13:31:00;16.00;64.90
33988;DHT22;37428;53.580;-1.666;2023-05-01T13:34:03;16.00;65.40
33988;DHT22;37428;53.580;-1.666;2023-05-01T13:37:09;16.00;65.90
33988;DHT22;37428;53.580;-1.666;2023-05-01T13:40:13;15.90;65.10
33988;DHT22;37428;53.580;-1.666;2023-05-01T13:43:15;15.80;65.20
33988;DHT22;37428;53.580;-1.666;2023-05-01T13:46:21;15.70;65.20
33988;DHT22;37428;53.580;-1.666;2023-05-01T13:49:24;15.90;65.80
33988;DHT22;37428;53.580;-1.666;2023-05-01T13:52:28;15.80;66.70
33988;DHT22;37428;53.580;-1.666;2023-05-01T13:55:30;15.90;66.80
33988;DHT22;37428;53.580;-1.666;2023-05-01T13:58:32;16.20;65.40
33988;DHT22;37428;53.580;-1.666;2023-05-01T14:01:39;16.60;65.50
33988;DHT22;37428;53.580;-1.666;2023-05-01T14:04:42;17.10;64.00
33988;DHT22;37428;53.580;-1.666;2023-05-01T14:07:52;17.20;63.70
33988;DHT22;37428;53.580;-1.666;2023-05-01T14:10:54;17.30;63.80
33988;DHT22;37428;53.580;-1.666;2023-05-01T14:13:58;17.30;62.50
33988;DHT22;37428;53.580;-1.666;2023-05-01T14:17:00;17.20;62.70
33988;DHT22;37428;53.580;-1.666;2023-05-01T14:20:03;17.10;62.70
33988;DHT22;37428;53.580;-1.666;2023-05-01T14:23:07;17.40;63.00
33988;DHT22;37428;53.580;-1.666;2023-05-01T14:26:15;17.40;61.90
33988;DHT22;37428;53.580;-1.666;2023-05-01T14:29:24;17.60;60.60
33988;DHT22;37428;53.580;-1.666;2023-05-01T14:32:27;17.60;60.30
33988;DHT22;37428;53.580;-1.666;2023-05-01T14:35:29;17.40;61.10
33988;DHT22;37428;53.580;-1.666;2023-05-01T14:38:33;17.30;60.30
33988;DHT22;37428;53.580;-1.666;2023-05-01T14:41:40;17.30;60.70
33988;DHT22;37428;53.580;-1.666;2023-05-01T14:44:43;17.30;62.30
33988;DHT22;37428;53.580;-1.666;2023-05-01T14:47:46;17.20;61.40
33988;DHT22;37428;53.580;-1.666;2023-05-01T14:50:49;17.30;62.40
33988;DHT22;37428;53.580;-1.666;2023-05-01T14:53:52;17.40;61.70
33988;DHT22;37428;53.580;-1.666;2023-05-01T14:56:54;17.30;62.30
33988;DHT22;37428;53.580;-1.666;2023-05-01T14:59:56;17.20;62.70
33988;DHT22;37428;53.580;-1.666;2023-05-01T15:02:59;17.20;61.50
33988;DHT22;37428;53.580;-1.666;2023-05-01T15:06:01;17.40;61.50
33988;DHT22;37428;53.580;-1.666;2023-05-01T15:09:05;17.20;60.90
33988;DHT22;37428;53.580;-1.666;2023-05-01T15:12:08;17.30;60.60
33988;DHT22;37428;53.580;-1.666;2023-05-01T15:15:10;17.40;59.70
33988;DHT22;37428;53.580;-1.666;2023-05-01T15:18:12;17.20;59.70
33988;DHT22;37428;53.580;-1.666;2023-05-01T15:21:14;16.90;60.00
33988;DHT22;37428;53.580;-1.666;2023-05-01T15:24:19;16.70;61.10
33988;DHT22;37428;53.580;-1.666;2023-05-01T15:27:22;16.80;60.70
33988;DHT22;37428;53.580;-1.666;2023-05-01T15:30:24;17.10;60.70
33988;DHT22;37428;53.580;-1.666;2023-05-01T15:33:26;17.50;60.10
33988;DHT22;37428;53.580;-1.666;2023-05-01T15:36:29;17.30;59.80
33988;DHT22;37428;53.580;-1.666;2023-05-01T15:39:32;17.40;59.80
33988;DHT22;37428;53.580;-1.666;2023-05-01T15:42:34;17.40;58.40
33988;DHT22;37428;53.580;-1.666;2023-05-01T15:45:36;17.70;59.60
33988;DHT22;37428;53.580;-1.666;2023-05-01T15:48:42;18.00;58.90
33988;DHT22;37428;53.580;-1.666;2023-05-01T15:51:44;18.00;58.40
33988;DHT22;37428;53.580;-1.666;2023-05-01T15:54:48;18.10;57.50
33988;DHT22;37428;53.580;-1.666;2023-05-01T15:57:50;18.20;56.80
33988;DHT22;37428;53.580;-1.666;2023-05-01T16:00:52;18.40;56.40
33988;DHT22;37428;53.580;-1.666;2023-05-01T16:03:54;18.30;56.60
33988;DHT22;37428;53.580;-1.666;2023-05-01T16:07:00;18.30;56.90
33988;DHT22;37428;53.580;-1.666;2023-05-01T16:10:04;18.50;56.00
33988;DHT22;37428;53.580;-1.666;2023-05-01T16:13:07;18.60;55.00
33988;DHT22;37428;53.580;-1.666;2023-05-01T16:16:10;18.40;55.10
33988;DHT22;37428;53.580;-1.666;2023-05-01T16:19:14;18.30;55.80
33988;DHT22;37428;53.580;-1.666;2023-05-01T16:22:17;18.40;56.00
33988;DHT22;37428;53.580;-1.666;2023-05-01T16:25:21;18.50;55.90
33988;DHT22;37428;53.580;-1.666;2023-05-01T16:28:24;18.50;55.30
33988;DHT22;37428;53.580;-1.666;2023-05-01T16:31:26;18.50;56.10
33988;DHT22;37428;53.580;-1.666;2023-05-01T16:34:32;18.50;55.10
33988;DHT22;37428;53.580;-1.666;2023-05-01T16:37:34;18.40;55.60
33988;DHT22;37428;53.580;-1.666;2023-05-01T16:40:38;18.30;55.00
33988;DHT22;37428;53.580;-1.666;2023-05-01T16:43:43;18.20;55.20
33988;DHT22;37428;53.580;-1.666;2023-05-01T16:46:49;18.10;56.10
33988;DHT22;37428;53.580;-1.666;2023-05-01T16:49:58;18.00;55.90
33988;DHT22;37428;53.580;-1.666;2023-05-01T16:53:00;17.90;56.30
33988;DHT22;37428;53.580;-1.666;2023-05-01T16:56:04;17.80;57.10
33988;DHT22;37428;53.580;-1.666;2023-05-01T16:59:08;17.70;56.70
33988;DHT22;37428;53.580;-1.666;2023-05-01T17:02:10;17.50;57.20
33988;DHT22;37428;53.580;-1.666;2023-05-01T17:05:12;17.30;58.10
33988;DHT22;37428;53.580;-1.666;2023-05-01T17:08:14;17.10;58.90
33988;DHT22;37428;53.580;-1.666;2023-05-01T17:11:18;16.90;58.90
33988;DHT22;37428;53.580;-1.666;2023-05-01T17:14:20;16.80;60.20
33988;DHT22;37428;53.580;-1.666;2023-05-01T17:17:22;16.70;60.40
33988;DHT22;37428;53.580;-1.666;2023-05-01T17:20:25;16.60;60.70
33988;DHT22;37428;53.580;-1.666;2023-05-01T17:23:28;16.50;61.10
33988;DHT22;37428;53.580;-1.666;2023-05-01T17:26:31;16.40;61.90
33988;DHT22;37428;53.580;-1.666;2023-05-01T17:29:33;16.30;62.60
33988;DHT22;37428;53.580;-1.666;2023-05-01T17:32:35;16.30;62.90
33988;DHT22;37428;53.580;-1.666;2023-05-01T17:35:38;16.30;63.20
33988;DHT22;37428;53.580;-1.666;2023-05-01T17:38:40;16.30;62.30
33988;DHT22;37428;53.580;-1.666;2023-05-01T17:41:43;16.20;62.50
33988;DHT22;37428;53.580;-1.666;2023-05-01T17:44:45;16.10;64.10
33988;DHT22;37428;53.580;-1.666;2023-05-01T17:47:47;15.90;64.80
33988;DHT22;37428;53.580;-1.666;2023-05-01T17:50:51;15.60;65.90
33988;DHT22;37428;53.580;-1.666;2023-05-01T17:53:55;15.30;66.10
33988;DHT22;37428;53.580;-1.666;2023-05-01T17:56:58;14.90;67.50
33988;DHT22;37428;53.580;-1.666;2023-05-01T18:00:01;14.70;68.10
33988;DHT22;37428;53.580;-1.666;2023-05-01T18:03:05;14.50;68.70
33988;DHT22;37428;53.580;-1.666;2023-05-01T18:06:08;14.30;69.50
33988;DHT22;37428;53.580;-1.666;2023-05-01T18:09:10;14.10;69.80
33988;DHT22;37428;53.580;-1.666;2023-05-01T18:12:13;14.00;70.40
33988;DHT22;37428;53.580;-1.666;2023-05-01T18:15:15;13.90;70.90
33988;DHT22;37428;53.580;-1.666;2023-05-01T18:18:18;13.90;71.60
33988;DHT22;37428;53.580;-1.666;2023-05-01T18:21:20;13.90;71.80
33988;DHT22;37428;53.580;-1.666;2023-05-01T18:24:22;14.00;71.70
33988;DHT22;37428;53.580;-1.666;2023-05-01T18:27:25;14.00;72.10
33988;DHT22;37428;53.580;-1.666;2023-05-01T18:30:27;13.90;70.80
33988;DHT22;37428;53.580;-1.666;2023-05-01T18:33:29;13.90;71.10
33988;DHT22;37428;53.580;-1.666;2023-05-01T18:36:31;13.80;71.40
33988;DHT22;37428;53.580;-1.666;2023-05-01T18:39:33;13.70;71.10
33988;DHT22;37428;53.580;-1.666;2023-05-01T18:42:46;13.70;72.00
33988;DHT22;37428;53.580;-1.666;2023-05-01T18:45:48;13.60;71.70
33988;DHT22;37428;53.580;-1.666;2023-05-01T18:48:50;13.70;72.30
33988;DHT22;37428;53.580;-1.666;2023-05-01T18:51:52;13.60;72.00
33988;DHT22;37428;53.580;-1.666;2023-05-01T18:54:54;13.60;72.00
33988;DHT22;37428;53.580;-1.666;2023-05-01T18:57:58;13.60;72.40
33988;DHT22;37428;53.580;-1.666;2023-05-01T19:01:01;13.60;72.80
33988;DHT22;37428;53.580;-1.666;2023-05-01T19:04:03;13.60;73.10
33988;DHT22;37428;53.580;-1.666;2023-05-01T19:07:06;13.60;72.60